createdAt,value
2023-11-25T00:01:05.660Z,96138.25
2023-11-25T00:03:33.670Z,96152.44
2023-11-25T00:06:01.568Z,96160.88
2023-11-25T00:08:29.256Z,96151.22
2023-11-25T00:10:58.477Z,96165.94
2023-11-25T00:13:26.373Z,96157.75
2023-11-25T00:15:56.076Z,96149.59
2023-11-25T00:18:24.775Z,96152.84
2023-11-25T00:20:52.997Z,96160.66
2023-11-25T00:23:20.692Z,96165.91
2023-11-25T00:25:48.386Z,96156.91
2023-11-25T00:28:21.297Z,96174.47
2023-11-25T00:30:49.104Z,96161.31
2023-11-25T00:33:17.024Z,96175.97
2023-11-25T00:35:44.711Z,96177.75
2023-11-25T00:38:12.583Z,96169.94
2023-11-25T00:40:40.300Z,96185.72
2023-11-25T00:43:08.472Z,96156.78
2023-11-25T00:45:37.750Z,96182.91
2023-11-25T00:48:07.995Z,96193.44
2023-11-25T00:50:36.008Z,96187.25
2023-11-25T00:53:04.090Z,96187.44
2023-11-25T00:55:31.990Z,96213.94
2023-11-25T00:58:00.421Z,96219.31
2023-11-25T01:00:29.286Z,96224.47
2023-11-25T01:02:59.255Z,96227.28
2023-11-25T01:05:26.980Z,96221.19
2023-11-25T01:07:54.988Z,96241.41
2023-11-25T01:10:22.772Z,96238.00
2023-11-25T01:12:50.514Z,96237.81
2023-11-25T01:15:20.901Z,96246.59
2023-11-25T01:17:50.640Z,96257.00
2023-11-25T01:20:20.033Z,96265.84
2023-11-25T01:22:49.077Z,96253.59
2023-11-25T01:25:17.136Z,96270.28
2023-11-25T01:27:45.133Z,96273.47
2023-11-25T01:30:14.365Z,96276.19
2023-11-25T01:32:42.450Z,96281.44
2023-11-25T01:35:10.659Z,96298.16
2023-11-25T01:37:40.066Z,96288.38
2023-11-25T01:40:12.337Z,96290.28
2023-11-25T01:42:40.280Z,96292.72
2023-11-25T01:45:10.163Z,96296.59
2023-11-25T01:47:39.198Z,96297.44
2023-11-25T01:50:09.124Z,96303.72
2023-11-25T01:52:37.684Z,96314.91
2023-11-25T01:55:10.038Z,96320.28
2023-11-25T01:57:38.649Z,96319.41
2023-11-25T02:00:09.231Z,96331.66
2023-11-25T02:02:41.461Z,96319.50
2023-11-25T02:05:10.099Z,96320.38
2023-11-25T02:07:38.300Z,96321.47
2023-11-25T02:10:10.768Z,96320.38
2023-11-25T02:12:40.172Z,96337.94
2023-11-25T02:15:12.365Z,96327.50
2023-11-25T02:17:43.163Z,96347.81
2023-11-25T02:20:14.665Z,96337.44
2023-11-25T02:22:44.141Z,96344.97
2023-11-25T02:25:15.964Z,96342.09
2023-11-25T02:27:43.993Z,96344.06
2023-11-25T02:30:13.833Z,96342.25
2023-11-25T02:32:42.124Z,96334.81
2023-11-25T02:35:10.889Z,96347.22
2023-11-25T02:37:38.933Z,96350.13
2023-11-25T02:40:11.251Z,96351.94
2023-11-25T02:42:40.644Z,96338.94
2023-11-25T02:45:08.488Z,96349.38
2023-11-25T02:47:36.193Z,96352.84
2023-11-25T02:50:03.893Z,96358.91
2023-11-25T02:52:31.650Z,96364.06
2023-11-25T02:54:59.318Z,96365.94
2023-11-25T02:57:27.945Z,96369.44
2023-11-25T03:00:00.389Z,96363.38
2023-11-25T03:02:28.373Z,96368.66
2023-11-25T03:04:56.124Z,96376.75
2023-11-25T03:07:24.160Z,96378.41
2023-11-25T03:09:51.880Z,96375.63
2023-11-25T03:12:19.520Z,96386.66
2023-11-25T03:14:47.927Z,96379.16
2023-11-25T03:17:16.975Z,96385.34
2023-11-25T03:19:44.727Z,96400.56
2023-11-25T03:22:12.459Z,96402.16
2023-11-25T03:24:40.413Z,96403.84
2023-11-25T03:27:08.070Z,96402.25
2023-11-25T03:29:35.961Z,96410.16
2023-11-25T03:32:04.493Z,96410.91
2023-11-25T03:34:33.626Z,96409.38
2023-11-25T03:37:01.274Z,96421.25
2023-11-25T03:39:28.942Z,96421.16
2023-11-25T03:41:56.591Z,96418.44
2023-11-25T03:44:24.291Z,96420.56
2023-11-25T03:46:52.180Z,96437.22
2023-11-25T03:49:21.682Z,96431.09
2023-11-25T03:51:51.522Z,96436.63
2023-11-25T03:54:19.310Z,96427.28
2023-11-25T03:56:47.097Z,96425.63
2023-11-25T03:59:14.775Z,96431.31
2023-11-25T04:01:43.084Z,96427.94
2023-11-25T04:04:12.376Z,96420.97
2023-11-25T04:06:40.654Z,96428.84
2023-11-25T04:09:10.652Z,96437.00
2023-11-25T04:11:38.380Z,96434.44
2023-11-25T04:14:06.096Z,96451.94
2023-11-25T04:16:33.805Z,96450.22
2023-11-25T04:19:02.676Z,96463.53
2023-11-25T04:21:31.205Z,96461.88
2023-11-25T04:23:58.853Z,96464.16
2023-11-25T04:26:27.882Z,96465.84
2023-11-25T04:28:55.571Z,96463.13
2023-11-25T04:31:23.328Z,96460.41
2023-11-25T04:33:51.888Z,96465.66
2023-11-25T04:36:20.070Z,96466.59
2023-11-25T04:38:48.397Z,96465.59
2023-11-25T04:41:16.125Z,96468.22
2023-11-25T04:43:45.247Z,96481.28
2023-11-25T04:46:13.212Z,96479.41
2023-11-25T04:48:41.704Z,96486.44
2023-11-25T04:51:10.322Z,96479.16
2023-11-25T04:53:38.250Z,96474.81
2023-11-25T04:56:06.783Z,96479.22
2023-11-25T04:58:34.527Z,96481.03
2023-11-25T05:01:03.832Z,96488.75
2023-11-25T05:03:32.880Z,96489.84
2023-11-25T05:06:03.282Z,96496.72
2023-11-25T05:08:31.308Z,96479.22
2023-11-25T05:10:59.086Z,96486.38
2023-11-25T05:13:26.787Z,96486.53
2023-11-25T05:15:54.466Z,96502.66
2023-11-25T05:18:23.540Z,96499.94
2023-11-25T05:20:51.342Z,96507.16
2023-11-25T05:23:19.003Z,96510.63
2023-11-25T05:25:46.851Z,96514.88
2023-11-25T05:28:14.641Z,96511.50
2023-11-25T05:30:42.114Z,96518.44
2023-11-25T05:33:10.426Z,96507.16
2023-11-25T05:35:39.630Z,96512.34
2023-11-25T05:38:07.172Z,96509.94
2023-11-25T05:40:37.466Z,96509.94
2023-11-25T05:43:07.834Z,96505.09
2023-11-25T05:45:39.923Z,96507.66
2023-11-25T05:48:07.840Z,96511.41
2023-11-25T05:50:35.686Z,96509.59
2023-11-25T05:53:04.670Z,96515.72
2023-11-25T05:55:32.445Z,96518.16
2023-11-25T05:58:00.799Z,96512.81
2023-11-25T06:00:30.518Z,96522.50
2023-11-25T06:02:58.158Z,96522.19
2023-11-25T06:05:25.894Z,96520.22
2023-11-25T06:07:53.588Z,96524.56
2023-11-25T06:10:24.125Z,96530.41
2023-11-25T06:12:52.039Z,96526.00
2023-11-25T06:15:21.104Z,96522.69
2023-11-25T06:17:49.025Z,96514.34
2023-11-25T06:20:16.993Z,96522.34
2023-11-25T06:22:44.722Z,96514.34
2023-11-25T06:25:12.569Z,96520.47
2023-11-25T06:27:42.740Z,96520.97
2023-11-25T06:30:13.228Z,96518.34
2023-11-25T06:32:40.945Z,96509.59
2023-11-25T06:35:10.722Z,96502.75
2023-11-25T06:37:40.380Z,96504.63
2023-11-25T06:40:13.521Z,96512.50
2023-11-25T06:42:43.061Z,96507.25
2023-11-25T06:45:11.207Z,96498.91
2023-11-25T06:47:40.027Z,96503.16
2023-11-25T06:50:08.481Z,96507.75
2023-11-25T06:52:36.167Z,96513.94
2023-11-25T06:55:04.023Z,96514.00
2023-11-25T06:57:31.684Z,96513.59
2023-11-25T07:00:00.680Z,96520.38
2023-11-25T07:02:28.912Z,96515.13
2023-11-25T07:04:56.683Z,96522.66
2023-11-25T07:07:24.360Z,96527.91
2023-11-25T07:09:52.499Z,96527.00
2023-11-25T07:12:20.639Z,96534.72
2023-11-25T07:14:48.534Z,96527.63
2023-11-25T07:17:17.778Z,96531.16
2023-11-25T07:19:45.657Z,96526.00
2023-11-25T07:22:13.592Z,96525.06
2023-11-25T07:24:41.641Z,96535.06
2023-11-25T07:27:11.901Z,96539.22
2023-11-25T07:29:39.618Z,96541.31
2023-11-25T07:32:10.854Z,96547.38
2023-11-25T07:34:40.580Z,96556.00
2023-11-25T07:37:08.328Z,96567.38
2023-11-25T07:39:36.367Z,96562.53
2023-11-25T07:42:05.238Z,96563.81
2023-11-25T07:44:32.896Z,96561.88
2023-11-25T07:47:02.884Z,96554.72
2023-11-25T07:49:31.661Z,96554.38
2023-11-25T07:52:00.770Z,96569.03
2023-11-25T07:54:28.415Z,96567.88
2023-11-25T07:56:56.543Z,96578.16
2023-11-25T07:59:24.188Z,96575.50
2023-11-25T08:01:52.870Z,96582.44
2023-11-25T08:04:20.798Z,96578.81
2023-11-25T08:06:48.552Z,96582.53
2023-11-25T08:09:19.119Z,96580.78
2023-11-25T08:11:47.120Z,96581.53
2023-11-25T08:14:15.506Z,96580.16
2023-11-25T08:16:43.537Z,96579.16
2023-11-25T08:19:11.269Z,96576.59
2023-11-25T08:21:39.097Z,96583.75
2023-11-25T08:24:07.905Z,96582.44
2023-11-25T08:26:36.918Z,96581.34
2023-11-25T08:29:04.776Z,96587.13
2023-11-25T08:31:32.679Z,96591.50
2023-11-25T08:34:03.843Z,96595.59
2023-11-25T08:36:31.497Z,96587.16
2023-11-25T08:39:02.583Z,96583.16
2023-11-25T08:41:31.101Z,96591.81
2023-11-25T08:44:00.915Z,96587.13
2023-11-25T08:46:28.748Z,96592.78
2023-11-25T08:48:56.423Z,96580.00
2023-11-25T08:51:25.206Z,96585.84
2023-11-25T08:53:52.848Z,96576.34
2023-11-25T08:56:22.000Z,96572.78
2023-11-25T08:58:50.015Z,96576.28
2023-11-25T09:01:21.401Z,96581.84
2023-11-25T09:03:49.216Z,96574.13
2023-11-25T09:06:17.627Z,96581.19
2023-11-25T09:08:45.491Z,96586.25
2023-11-25T09:11:13.352Z,96588.34
2023-11-25T09:13:41.877Z,96579.19
2023-11-25T09:16:10.767Z,96574.22
2023-11-25T09:18:39.979Z,96581.31
2023-11-25T09:21:08.108Z,96584.41
2023-11-25T09:23:35.812Z,96586.19
2023-11-25T09:26:03.887Z,96589.69
2023-11-25T09:28:31.704Z,96581.97
2023-11-25T09:30:59.417Z,96581.56
2023-11-25T09:33:27.716Z,96587.59
2023-11-25T09:35:57.293Z,96576.69
2023-11-25T09:38:25.569Z,96584.97
2023-11-25T09:40:53.393Z,96583.44
2023-11-25T09:43:22.416Z,96586.56
2023-11-25T09:45:52.141Z,96590.06
2023-11-25T09:48:19.879Z,96584.59
2023-11-25T09:50:48.373Z,96575.25
2023-11-25T09:53:24.671Z,96576.41
2023-11-25T09:56:02.477Z,96567.25
2023-11-25T09:58:32.633Z,96567.63
2023-11-25T10:01:01.302Z,96561.75
2023-11-25T10:03:33.608Z,96554.94
2023-11-25T10:06:01.429Z,96551.41
2023-11-25T10:08:30.444Z,96552.00
2023-11-25T10:11:06.993Z,96550.94
2023-11-25T10:13:36.043Z,96551.88
2023-11-25T10:16:04.302Z,96552.78
2023-11-25T10:18:32.378Z,96557.69
2023-11-25T10:21:00.660Z,96543.56
2023-11-25T10:23:30.369Z,96533.00
2023-11-25T10:26:00.119Z,96534.91
2023-11-25T10:28:29.048Z,96529.66
2023-11-25T10:30:57.405Z,96517.53
2023-11-25T10:33:25.336Z,96529.28
2023-11-25T10:35:53.653Z,96519.16
2023-11-25T10:38:23.297Z,96514.22
2023-11-25T10:40:52.760Z,96517.13
2023-11-25T10:43:22.351Z,96502.34
2023-11-25T10:45:50.848Z,96507.06
2023-11-25T10:48:18.667Z,96503.25
2023-11-25T10:50:46.381Z,96493.38
2023-11-25T10:53:16.112Z,96508.41
2023-11-25T10:55:45.166Z,96509.06
2023-11-25T10:58:16.502Z,96508.34
2023-11-25T11:00:44.162Z,96509.06
2023-11-25T11:03:14.760Z,96500.34
2023-11-25T11:05:47.117Z,96508.13
2023-11-25T11:08:21.625Z,96501.88
2023-11-25T11:10:55.181Z,96507.91
2023-11-25T11:13:35.711Z,96499.88
2023-11-25T11:16:08.899Z,96498.22
2023-11-25T11:18:42.324Z,96500.44
2023-11-25T11:21:10.938Z,96500.00
2023-11-25T11:23:39.240Z,96502.13
2023-11-25T11:26:20.411Z,96505.94
2023-11-25T11:29:05.121Z,96502.19
2023-11-25T11:31:59.093Z,96508.06
2023-11-25T11:34:29.066Z,96500.69
2023-11-25T11:36:57.156Z,96501.09
2023-11-25T11:39:35.386Z,96517.34
2023-11-25T11:42:28.977Z,96507.75
2023-11-25T11:45:23.834Z,96503.25
2023-11-25T11:47:53.702Z,96496.66
2023-11-25T11:50:24.026Z,96492.13
2023-11-25T11:53:15.096Z,96488.75
2023-11-25T11:55:45.636Z,96483.09
2023-11-25T11:58:13.837Z,96480.19
2023-11-25T12:00:47.260Z,96481.56
2023-11-25T12:03:15.728Z,96487.44
2023-11-25T12:05:43.652Z,96472.19
2023-11-25T12:08:11.667Z,96478.66
2023-11-25T12:10:40.687Z,96480.66
2023-11-25T12:13:09.782Z,96469.31
2023-11-25T12:15:37.704Z,96475.00
2023-11-25T12:18:07.501Z,96464.09
2023-11-25T12:20:35.518Z,96464.47
2023-11-25T12:23:09.748Z,96460.13
2023-11-25T12:25:38.496Z,96452.00
2023-11-25T12:28:08.526Z,96442.94
2023-11-25T12:30:37.710Z,96445.34
2023-11-25T12:33:07.582Z,96447.91
2023-11-25T12:35:36.004Z,96441.47
2023-11-25T12:38:12.263Z,96430.31
2023-11-25T12:40:45.790Z,96425.50
2023-11-25T12:43:13.872Z,96424.34
2023-11-25T12:45:42.817Z,96431.59
2023-11-25T12:48:14.107Z,96434.63
2023-11-25T12:51:06.205Z,96430.47
2023-11-25T12:53:35.719Z,96417.50
2023-11-25T12:56:03.607Z,96420.56
2023-11-25T12:58:32.283Z,96414.81
2023-11-25T13:01:00.455Z,96412.44
2023-11-25T13:03:32.446Z,96410.84
2023-11-25T13:06:01.488Z,96408.97
2023-11-25T13:08:32.845Z,96418.66
2023-11-25T13:11:02.654Z,96409.19
2023-11-25T13:13:30.989Z,96414.47
2023-11-25T13:15:59.431Z,96407.16
2023-11-25T13:18:29.282Z,96418.84
2023-11-25T13:20:57.623Z,96406.56
2023-11-25T13:23:25.696Z,96404.53
2023-11-25T13:25:53.698Z,96407.81
2023-11-25T13:28:22.267Z,96414.59
2023-11-25T13:30:49.959Z,96404.91
2023-11-25T13:33:17.853Z,96410.09
2023-11-25T13:35:47.791Z,96401.66
2023-11-25T13:38:16.979Z,96401.34
2023-11-25T13:40:44.772Z,96398.06
2023-11-25T13:43:14.372Z,96391.09
2023-11-25T13:45:42.980Z,96389.38
2023-11-25T13:48:13.066Z,96393.19
2023-11-25T13:50:40.791Z,96392.88
2023-11-25T13:53:09.828Z,96383.13
2023-11-25T13:55:38.941Z,96402.81
2023-11-25T13:58:07.955Z,96384.75
2023-11-25T14:00:35.644Z,96391.81
2023-11-25T14:03:03.523Z,96382.28
2023-11-25T14:05:32.139Z,96395.97
2023-11-25T14:07:59.811Z,96399.78
2023-11-25T14:10:28.825Z,96392.84
2023-11-25T14:12:57.499Z,96390.50
2023-11-25T14:15:25.434Z,96394.25
2023-11-25T14:17:53.183Z,96394.00
2023-11-25T14:20:22.279Z,96401.47
2023-11-25T14:22:50.715Z,96394.88
2023-11-25T14:25:20.436Z,96376.63
2023-11-25T14:27:50.063Z,96390.53
2023-11-25T14:30:19.559Z,96394.00
2023-11-25T14:32:48.260Z,96392.78
2023-11-25T14:35:16.582Z,96394.00
2023-11-25T14:37:45.529Z,96389.81
2023-11-25T14:40:15.441Z,96378.84
2023-11-25T14:42:44.796Z,96387.72
2023-11-25T14:45:14.230Z,96384.88
2023-11-25T14:47:43.138Z,96382.34
2023-11-25T14:50:12.547Z,96382.63
2023-11-25T14:52:40.393Z,96371.34
2023-11-25T14:55:09.513Z,96379.16
2023-11-25T14:57:37.551Z,96371.19
2023-11-25T15:00:09.421Z,96364.63
2023-11-25T15:02:39.842Z,96356.81
2023-11-25T15:05:08.259Z,96352.56
2023-11-25T15:07:36.019Z,96363.31
2023-11-25T15:10:04.341Z,96377.03
2023-11-25T15:12:32.017Z,96379.13
2023-11-25T15:14:59.686Z,96373.84
2023-11-25T15:17:28.131Z,96375.28
2023-11-25T15:19:57.172Z,96384.03
2023-11-25T15:22:24.868Z,96379.13
2023-11-25T15:24:53.702Z,96382.31
2023-11-25T15:27:21.320Z,96388.00
2023-11-25T15:30:00.199Z,96389.28
2023-11-25T15:32:27.956Z,96396.28
2023-11-25T15:34:57.326Z,96398.69
2023-11-25T15:37:25.829Z,96389.47
2023-11-25T15:39:54.052Z,96389.31
2023-11-25T15:42:21.743Z,96377.66
2023-11-25T15:44:50.336Z,96378.50
2023-11-25T15:47:17.963Z,96384.78
2023-11-25T15:49:45.639Z,96385.09
2023-11-25T15:52:14.804Z,96391.22
2023-11-25T15:54:42.601Z,96396.28
2023-11-25T15:57:10.298Z,96383.13
2023-11-25T15:59:38.657Z,96386.31
2023-11-25T16:02:07.481Z,96383.56
2023-11-25T16:04:36.977Z,96393.06
2023-11-25T16:07:05.063Z,96394.94
2023-11-25T16:09:36.460Z,96396.66
2023-11-25T16:12:06.399Z,96394.75
2023-11-25T16:14:34.727Z,96384.69
2023-11-25T16:17:03.834Z,96386.09
2023-11-25T16:19:31.498Z,96400.13
2023-11-25T16:21:59.329Z,96390.78
2023-11-25T16:24:26.994Z,96394.44
2023-11-25T16:26:55.988Z,96406.72
2023-11-25T16:29:24.920Z,96395.13
2023-11-25T16:31:52.918Z,96392.22
2023-11-25T16:34:20.689Z,96393.16
2023-11-25T16:36:49.677Z,96375.56
2023-11-25T16:39:18.523Z,96388.19
2023-11-25T16:41:50.802Z,96371.03
2023-11-25T16:44:22.414Z,96379.97
2023-11-25T16:46:50.186Z,96373.31
2023-11-25T16:49:18.162Z,96365.50
2023-11-25T16:51:45.797Z,96359.00
2023-11-25T16:54:13.555Z,96351.09
2023-11-25T16:56:41.223Z,96351.84
2023-11-25T16:59:10.256Z,96370.84
2023-11-25T17:01:41.595Z,96365.91
2023-11-25T17:04:09.730Z,96360.09
2023-11-25T17:06:37.986Z,96367.16
2023-11-25T17:09:05.881Z,96379.38
2023-11-25T17:11:33.742Z,96381.38
2023-11-25T17:14:01.437Z,96382.72
2023-11-25T17:16:30.184Z,96379.13
2023-11-25T17:18:59.900Z,96381.97
2023-11-25T17:21:27.670Z,96385.56
2023-11-25T17:23:55.531Z,96379.31
2023-11-25T17:26:24.995Z,96407.28
2023-11-25T17:28:52.671Z,96396.09
2023-11-25T17:31:22.782Z,96401.47
2023-11-25T17:33:51.937Z,96416.13
2023-11-25T17:36:21.532Z,96417.56
2023-11-25T17:38:49.232Z,96417.09
2023-11-25T17:41:18.201Z,96423.31
2023-11-25T17:43:46.253Z,96419.84
2023-11-25T17:46:14.063Z,96418.78
2023-11-25T17:48:42.254Z,96412.03
2023-11-25T17:51:09.973Z,96413.69
2023-11-25T17:53:39.285Z,96410.88
2023-11-25T17:56:07.757Z,96408.22
2023-11-25T17:58:35.503Z,96410.56
2023-11-25T18:01:03.191Z,96411.31
2023-11-25T18:03:31.310Z,96421.78
2023-11-25T18:05:58.956Z,96425.38
2023-11-25T18:08:29.798Z,96428.66
2023-11-25T18:10:58.853Z,96420.84
2023-11-25T18:13:26.909Z,96423.19
2023-11-25T18:15:54.598Z,96425.63
2023-11-25T18:18:22.336Z,96435.50
2023-11-25T18:20:51.005Z,96426.66
2023-11-25T18:23:18.801Z,96435.59
2023-11-25T18:25:46.595Z,96431.19
2023-11-25T18:28:15.788Z,96431.94
2023-11-25T18:30:44.148Z,96429.19
2023-11-25T18:33:12.177Z,96435.31
2023-11-25T18:35:41.618Z,96432.78
2023-11-25T18:38:09.689Z,96440.59
2023-11-25T18:40:37.658Z,96439.94
2023-11-25T18:43:05.390Z,96428.09
2023-11-25T18:45:34.486Z,96438.84
2023-11-25T18:48:02.250Z,96444.59
2023-11-25T18:50:30.494Z,96446.38
2023-11-25T18:52:58.268Z,96440.56
2023-11-25T18:55:25.953Z,96446.56
2023-11-25T18:57:53.605Z,96453.41
2023-11-25T19:00:21.755Z,96454.28
2023-11-25T19:02:51.053Z,96455.22
2023-11-25T19:05:19.080Z,96464.75
2023-11-25T19:07:47.808Z,96472.00
2023-11-25T19:10:17.744Z,96462.00
2023-11-25T19:12:45.562Z,96464.56
2023-11-25T19:15:15.706Z,96473.47
2023-11-25T19:17:43.471Z,96459.06
2023-11-25T19:20:15.164Z,96476.59
2023-11-25T19:22:42.957Z,96476.22
2023-11-25T19:25:12.744Z,96476.13
2023-11-25T19:27:40.490Z,96483.16
2023-11-25T19:30:09.081Z,96484.59
2023-11-25T19:32:37.010Z,96474.13
2023-11-25T19:35:05.206Z,96474.22
2023-11-25T19:37:34.261Z,96476.81
2023-11-25T19:40:02.140Z,96482.41
2023-11-25T19:42:29.859Z,96482.81
2023-11-25T19:44:57.542Z,96478.19
2023-11-25T19:47:25.265Z,96485.91
2023-11-25T19:49:53.113Z,96486.28
2023-11-25T19:52:20.795Z,96489.13
2023-11-25T19:54:49.792Z,96479.88
2023-11-25T19:57:18.402Z,96474.31
2023-11-25T19:59:46.047Z,96473.28
2023-11-25T20:02:13.854Z,96468.84
2023-11-25T20:04:41.634Z,96474.59
2023-11-25T20:07:09.630Z,96480.88
2023-11-25T20:09:37.975Z,96467.81
2023-11-25T20:12:07.611Z,96491.34
2023-11-25T20:14:35.309Z,96466.47
2023-11-25T20:17:03.028Z,96476.47
2023-11-25T20:19:31.183Z,96475.59
2023-11-25T20:21:58.893Z,96485.13
2023-11-25T20:24:26.646Z,96483.22
2023-11-25T20:26:56.337Z,96487.66
2023-11-25T20:29:25.402Z,96485.78
2023-11-25T20:31:53.583Z,96479.84
2023-11-25T20:34:21.391Z,96474.78
2023-11-25T20:36:49.201Z,96485.97
2023-11-25T20:39:17.696Z,96498.50
2023-11-25T20:41:45.697Z,96485.50
2023-11-25T20:44:13.407Z,96486.22
2023-11-25T20:46:42.489Z,96481.59
2023-11-25T20:49:10.163Z,96495.66
2023-11-25T20:51:37.833Z,96490.75
2023-11-25T20:54:06.270Z,96482.03
2023-11-25T20:56:34.184Z,96481.34
2023-11-25T20:59:02.140Z,96475.13
2023-11-25T21:01:31.448Z,96488.50
2023-11-25T21:04:00.496Z,96476.28
2023-11-25T21:06:28.212Z,96495.69
2023-11-25T21:08:55.876Z,96490.22
2023-11-25T21:11:23.532Z,96492.47
2023-11-25T21:13:52.868Z,96478.81
2023-11-25T21:16:21.113Z,96486.63
2023-11-25T21:18:48.782Z,96488.31
2023-11-25T21:21:18.633Z,96489.38
2023-11-25T21:23:46.330Z,96502.44
2023-11-25T21:26:15.067Z,96492.94
2023-11-25T21:28:43.022Z,96499.25
2023-11-25T21:31:12.383Z,96500.66
2023-11-25T21:33:39.957Z,96503.41
2023-11-25T21:36:08.289Z,96493.50
2023-11-25T21:38:37.300Z,96495.50
2023-11-25T21:41:06.556Z,96494.53
2023-11-25T21:43:34.532Z,96495.69
2023-11-25T21:46:03.372Z,96501.88
2023-11-25T21:48:32.455Z,96505.56
2023-11-25T21:51:00.398Z,96496.84
2023-11-25T21:53:28.092Z,96502.84
2023-11-25T21:55:57.196Z,96500.03
2023-11-25T21:58:24.891Z,96500.94
2023-11-25T22:00:52.617Z,96499.47
2023-11-25T22:03:20.395Z,96511.69
2023-11-25T22:05:48.727Z,96520.44
2023-11-25T22:08:16.388Z,96509.44
2023-11-25T22:10:44.591Z,96517.06
2023-11-25T22:13:13.620Z,96519.13
2023-11-25T22:15:41.352Z,96510.38
2023-11-25T22:18:12.423Z,96515.56
2023-11-25T22:20:41.042Z,96521.97
2023-11-25T22:23:10.208Z,96508.69
2023-11-25T22:25:38.599Z,96525.47
2023-11-25T22:28:08.857Z,96515.75
2023-11-25T22:30:38.059Z,96519.41
2023-11-25T22:33:07.210Z,96523.66
2023-11-25T22:35:47.374Z,96519.22
2023-11-25T22:38:18.505Z,96527.88
2023-11-25T22:40:46.395Z,96520.75
2023-11-25T22:43:14.161Z,96527.50
2023-11-25T22:45:43.256Z,96538.25
2023-11-25T22:48:10.886Z,96538.25
2023-11-25T22:50:38.513Z,96570.28
2023-11-25T22:53:06.276Z,96593.91
2023-11-25T22:55:33.928Z,96591.72
2023-11-25T22:58:01.639Z,96604.28
2023-11-25T23:00:30.109Z,96614.03
2023-11-25T23:02:59.588Z,96622.28
2023-11-25T23:05:27.845Z,96634.19
2023-11-25T23:07:55.565Z,96632.47
2023-11-25T23:10:23.222Z,96643.56
2023-11-25T23:12:50.991Z,96645.69
2023-11-25T23:15:18.702Z,96643.06
2023-11-25T23:17:46.644Z,96644.75
2023-11-25T23:20:16.088Z,96642.63
2023-11-25T23:22:43.990Z,96646.81
2023-11-25T23:25:11.712Z,96653.59
2023-11-25T23:27:39.392Z,96648.84
2023-11-25T23:30:11.538Z,96645.81
2023-11-25T23:32:39.510Z,96646.56
2023-11-25T23:35:08.041Z,96653.03
2023-11-25T23:37:38.268Z,96653.03
2023-11-25T23:40:08.372Z,96662.44
2023-11-25T23:42:36.021Z,96653.44
2023-11-25T23:45:03.795Z,96666.59
2023-11-25T23:47:31.859Z,96659.31
2023-11-25T23:49:59.670Z,96666.44
2023-11-25T23:52:27.410Z,96663.72
2023-11-25T23:54:56.464Z,96660.66
2023-11-25T23:57:24.098Z,96670.19
2023-11-25T23:59:51.755Z,96669.00
